sensor_id;sensor_type;location;lat;lon;timestamp;P1;durP1;ratioP1;P2;durP2;ratioP2
70420;SDS011;57848;51.938;15.520;2022-08-19T00:01:39;19.58;;;12.68;;
70420;SDS011;57848;51.938;15.520;2022-08-19T00:04:07;22.27;;;13.73;;
70420;SDS011;57848;51.938;15.520;2022-08-19T00:06:35;21.42;;;13.02;;
70420;SDS011;57848;51.938;15.520;2022-08-19T00:09:02;19.27;;;13.23;;
70420;SDS011;57848;51.938;15.520;2022-08-19T00:11:29;19.48;;;13.55;;
70420;SDS011;57848;51.938;15.520;2022-08-19T00:13:55;24.43;;;15.00;;
70420;SDS011;57848;51.938;15.520;2022-08-19T00:16:21;22.08;;;14.23;;
70420;SDS011;57848;51.938;15.520;2022-08-19T00:18:48;21.10;;;15.27;;
70420;SDS011;57848;51.938;15.520;2022-08-19T00:21:13;23.40;;;14.97;;
70420;SDS011;57848;51.938;15.520;2022-08-19T00:23:39;22.20;;;14.23;;
70420;SDS011;57848;51.938;15.520;2022-08-19T00:26:05;21.48;;;14.77;;
70420;SDS011;57848;51.938;15.520;2022-08-19T00:28:31;20.65;;;15.20;;
70420;SDS011;57848;51.938;15.520;2022-08-19T00:30:58;21.08;;;15.05;;
70420;SDS011;57848;51.938;15.520;2022-08-19T00:33:24;21.55;;;15.55;;
70420;SDS011;57848;51.938;15.520;2022-08-19T00:35:50;19.20;;;14.70;;
70420;SDS011;57848;51.938;15.520;2022-08-19T00:38:15;24.77;;;16.33;;
70420;SDS011;57848;51.938;15.520;2022-08-19T00:40:43;23.42;;;16.15;;
70420;SDS011;57848;51.938;15.520;2022-08-19T00:43:11;24.93;;;16.20;;
70420;SDS011;57848;51.938;15.520;2022-08-19T00:45:40;24.92;;;17.10;;
70420;SDS011;57848;51.938;15.520;2022-08-19T00:48:09;28.30;;;16.42;;
70420;SDS011;57848;51.938;15.520;2022-08-19T00:50:35;22.25;;;16.98;;
70420;SDS011;57848;51.938;15.520;2022-08-19T00:53:00;25.83;;;16.53;;
70420;SDS011;57848;51.938;15.520;2022-08-19T00:55:29;23.13;;;16.93;;
70420;SDS011;57848;51.938;15.520;2022-08-19T00:57:56;20.13;;;15.82;;
70420;SDS011;57848;51.938;15.520;2022-08-19T01:00:26;23.88;;;16.40;;
70420;SDS011;57848;51.938;15.520;2022-08-19T01:02:52;24.55;;;16.40;;
70420;SDS011;57848;51.938;15.520;2022-08-19T01:05:21;21.00;;;16.30;;
70420;SDS011;57848;51.938;15.520;2022-08-19T01:07:49;22.53;;;15.37;;
70420;SDS011;57848;51.938;15.520;2022-08-19T01:10:16;23.67;;;15.57;;
70420;SDS011;57848;51.938;15.520;2022-08-19T01:12:45;23.83;;;15.65;;
70420;SDS011;57848;51.938;15.520;2022-08-19T01:15:12;22.42;;;15.38;;
70420;SDS011;57848;51.938;15.520;2022-08-19T01:17:41;21.73;;;16.08;;
70420;SDS011;57848;51.938;15.520;2022-08-19T01:20:11;25.40;;;15.73;;
70420;SDS011;57848;51.938;15.520;2022-08-19T01:22:49;21.80;;;15.27;;
70420;SDS011;57848;51.938;15.520;2022-08-19T01:25:15;23.73;;;15.65;;
70420;SDS011;57848;51.938;15.520;2022-08-19T01:27:43;23.10;;;14.38;;
70420;SDS011;57848;51.938;15.520;2022-08-19T01:30:13;19.55;;;14.10;;
70420;SDS011;57848;51.938;15.520;2022-08-19T01:32:42;21.73;;;14.70;;
70420;SDS011;57848;51.938;15.520;2022-08-19T01:35:08;19.80;;;14.20;;
70420;SDS011;57848;51.938;15.520;2022-08-19T01:40:17;20.95;;;14.02;;
70420;SDS011;57848;51.938;15.520;2022-08-19T01:42:45;21.88;;;14.60;;
70420;SDS011;57848;51.938;15.520;2022-08-19T01:45:12;22.30;;;13.80;;
70420;SDS011;57848;51.938;15.520;2022-08-19T01:47:38;22.70;;;14.45;;
70420;SDS011;57848;51.938;15.520;2022-08-19T01:50:05;21.60;;;13.93;;
70420;SDS011;57848;51.938;15.520;2022-08-19T01:52:32;19.73;;;13.63;;
70420;SDS011;57848;51.938;15.520;2022-08-19T01:55:00;20.40;;;13.45;;
70420;SDS011;57848;51.938;15.520;2022-08-19T01:57:25;17.37;;;11.67;;
70420;SDS011;57848;51.938;15.520;2022-08-19T01:59:51;24.27;;;12.98;;
70420;SDS011;57848;51.938;15.520;2022-08-19T02:02:16;22.07;;;13.60;;
70420;SDS011;57848;51.938;15.520;2022-08-19T02:04:42;24.03;;;14.40;;
70420;SDS011;57848;51.938;15.520;2022-08-19T02:07:07;20.00;;;13.87;;
70420;SDS011;57848;51.938;15.520;2022-08-19T02:09:33;22.15;;;14.88;;
70420;SDS011;57848;51.938;15.520;2022-08-19T02:11:59;22.83;;;13.55;;
70420;SDS011;57848;51.938;15.520;2022-08-19T02:14:24;21.73;;;14.00;;
70420;SDS011;57848;51.938;15.520;2022-08-19T02:16:49;18.03;;;13.53;;
70420;SDS011;57848;51.938;15.520;2022-08-19T02:19:15;20.00;;;14.03;;
70420;SDS011;57848;51.938;15.520;2022-08-19T02:21:40;19.67;;;14.30;;
70420;SDS011;57848;51.938;15.520;2022-08-19T02:24:06;20.50;;;13.15;;
70420;SDS011;57848;51.938;15.520;2022-08-19T02:26:32;19.87;;;13.23;;
70420;SDS011;57848;51.938;15.520;2022-08-19T02:28:57;21.23;;;14.02;;
70420;SDS011;57848;51.938;15.520;2022-08-19T02:31:24;22.67;;;14.77;;
70420;SDS011;57848;51.938;15.520;2022-08-19T02:33:50;25.80;;;14.82;;
70420;SDS011;57848;51.938;15.520;2022-08-19T02:36:17;22.30;;;15.57;;
70420;SDS011;57848;51.938;15.520;2022-08-19T02:38:42;22.70;;;15.60;;
70420;SDS011;57848;51.938;15.520;2022-08-19T02:41:16;23.42;;;15.27;;
70420;SDS011;57848;51.938;15.520;2022-08-19T02:43:43;20.60;;;15.47;;
70420;SDS011;57848;51.938;15.520;2022-08-19T02:46:15;24.30;;;16.52;;
70420;SDS011;57848;51.938;15.520;2022-08-19T02:48:49;25.10;;;16.77;;
70420;SDS011;57848;51.938;15.520;2022-08-19T02:51:21;24.42;;;16.67;;
70420;SDS011;57848;51.938;15.520;2022-08-19T02:53:51;24.13;;;16.43;;
70420;SDS011;57848;51.938;15.520;2022-08-19T02:56:17;27.92;;;16.23;;
70420;SDS011;57848;51.938;15.520;2022-08-19T02:58:43;24.20;;;15.88;;
70420;SDS011;57848;51.938;15.520;2022-08-19T03:01:09;23.00;;;16.60;;
70420;SDS011;57848;51.938;15.520;2022-08-19T03:03:35;23.63;;;16.42;;
70420;SDS011;57848;51.938;15.520;2022-08-19T03:06:05;25.75;;;16.52;;
70420;SDS011;57848;51.938;15.520;2022-08-19T03:08:37;24.95;;;17.40;;
70420;SDS011;57848;51.938;15.520;2022-08-19T03:11:04;25.17;;;16.67;;
70420;SDS011;57848;51.938;15.520;2022-08-19T03:13:29;22.70;;;16.48;;
70420;SDS011;57848;51.938;15.520;2022-08-19T03:15:55;27.47;;;17.27;;
70420;SDS011;57848;51.938;15.520;2022-08-19T03:18:20;25.97;;;16.70;;
70420;SDS011;57848;51.938;15.520;2022-08-19T03:20:48;25.45;;;16.60;;
70420;SDS011;57848;51.938;15.520;2022-08-19T03:23:15;25.03;;;16.50;;
70420;SDS011;57848;51.938;15.520;2022-08-19T03:25:43;23.77;;;17.05;;
70420;SDS011;57848;51.938;15.520;2022-08-19T03:28:10;21.98;;;16.55;;
70420;SDS011;57848;51.938;15.520;2022-08-19T03:30:37;25.17;;;16.92;;
70420;SDS011;57848;51.938;15.520;2022-08-19T03:33:02;21.77;;;16.77;;
70420;SDS011;57848;51.938;15.520;2022-08-19T03:35:27;24.87;;;17.10;;
70420;SDS011;57848;51.938;15.520;2022-08-19T03:37:53;23.58;;;16.73;;
70420;SDS011;57848;51.938;15.520;2022-08-19T03:40:18;28.70;;;17.27;;
70420;SDS011;57848;51.938;15.520;2022-08-19T03:42:44;24.47;;;17.27;;
70420;SDS011;57848;51.938;15.520;2022-08-19T03:45:11;22.45;;;16.30;;
70420;SDS011;57848;51.938;15.520;2022-08-19T03:47:36;22.87;;;16.10;;
70420;SDS011;57848;51.938;15.520;2022-08-19T03:50:03;24.35;;;16.60;;
70420;SDS011;57848;51.938;15.520;2022-08-19T03:52:29;21.98;;;15.60;;
70420;SDS011;57848;51.938;15.520;2022-08-19T03:54:54;23.00;;;17.03;;
70420;SDS011;57848;51.938;15.520;2022-08-19T03:57:20;30.67;;;16.30;;
70420;SDS011;57848;51.938;15.520;2022-08-19T03:59:45;24.35;;;16.23;;
70420;SDS011;57848;51.938;15.520;2022-08-19T04:02:11;22.93;;;15.50;;
70420;SDS011;57848;51.938;15.520;2022-08-19T04:04:38;23.67;;;15.10;;
70420;SDS011;57848;51.938;15.520;2022-08-19T04:07:04;24.93;;;16.00;;
70420;SDS011;57848;51.938;15.520;2022-08-19T04:09:30;26.52;;;16.58;;
70420;SDS011;57848;51.938;15.520;2022-08-19T04:11:56;24.87;;;15.47;;
70420;SDS011;57848;51.938;15.520;2022-08-19T04:14:23;24.98;;;16.20;;
70420;SDS011;57848;51.938;15.520;2022-08-19T04:16:51;23.80;;;16.63;;
70420;SDS011;57848;51.938;15.520;2022-08-19T04:19:18;24.13;;;15.15;;
70420;SDS011;57848;51.938;15.520;2022-08-19T04:21:45;21.40;;;15.45;;
70420;SDS011;57848;51.938;15.520;2022-08-19T04:24:12;22.57;;;14.73;;
70420;SDS011;57848;51.938;15.520;2022-08-19T04:26:38;24.48;;;15.73;;
70420;SDS011;57848;51.938;15.520;2022-08-19T04:29:06;22.02;;;15.30;;
70420;SDS011;57848;51.938;15.520;2022-08-19T04:31:33;22.05;;;14.80;;
70420;SDS011;57848;51.938;15.520;2022-08-19T04:34:00;23.38;;;16.25;;
70420;SDS011;57848;51.938;15.520;2022-08-19T04:36:29;24.60;;;15.43;;
70420;SDS011;57848;51.938;15.520;2022-08-19T04:38:57;21.15;;;15.38;;
70420;SDS011;57848;51.938;15.520;2022-08-19T04:41:24;21.35;;;15.02;;
70420;SDS011;57848;51.938;15.520;2022-08-19T04:44:08;23.13;;;14.57;;
70420;SDS011;57848;51.938;15.520;2022-08-19T04:46:35;21.17;;;14.90;;
70420;SDS011;57848;51.938;15.520;2022-08-19T04:49:01;20.30;;;15.37;;
70420;SDS011;57848;51.938;15.520;2022-08-19T04:51:29;22.65;;;14.70;;
70420;SDS011;57848;51.938;15.520;2022-08-19T04:53:56;21.45;;;14.35;;
70420;SDS011;57848;51.938;15.520;2022-08-19T04:56:21;20.73;;;14.83;;
70420;SDS011;57848;51.938;15.520;2022-08-19T04:58:47;21.67;;;14.38;;
70420;SDS011;57848;51.938;15.520;2022-08-19T05:01:15;23.35;;;15.15;;
70420;SDS011;57848;51.938;15.520;2022-08-19T05:03:43;23.57;;;14.67;;
70420;SDS011;57848;51.938;15.520;2022-08-19T05:06:10;21.42;;;14.07;;
70420;SDS011;57848;51.938;15.520;2022-08-19T05:08:38;22.30;;;14.98;;
70420;SDS011;57848;51.938;15.520;2022-08-19T05:11:16;21.87;;;14.67;;
70420;SDS011;57848;51.938;15.520;2022-08-19T05:13:43;21.50;;;14.75;;
70420;SDS011;57848;51.938;15.520;2022-08-19T05:16:10;23.13;;;15.00;;
70420;SDS011;57848;51.938;15.520;2022-08-19T05:18:37;24.23;;;15.48;;
70420;SDS011;57848;51.938;15.520;2022-08-19T05:21:21;20.40;;;14.10;;
70420;SDS011;57848;51.938;15.520;2022-08-19T05:24:06;19.83;;;14.27;;
70420;SDS011;57848;51.938;15.520;2022-08-19T05:26:35;21.48;;;15.35;;
70420;SDS011;57848;51.938;15.520;2022-08-19T05:29:02;24.05;;;14.80;;
70420;SDS011;57848;51.938;15.520;2022-08-19T05:31:27;21.95;;;14.68;;
70420;SDS011;57848;51.938;15.520;2022-08-19T05:33:52;21.07;;;14.23;;
70420;SDS011;57848;51.938;15.520;2022-08-19T05:36:18;23.30;;;13.87;;
70420;SDS011;57848;51.938;15.520;2022-08-19T05:38:44;23.50;;;13.68;;
70420;SDS011;57848;51.938;15.520;2022-08-19T05:41:11;19.63;;;13.27;;
70420;SDS011;57848;51.938;15.520;2022-08-19T05:43:38;19.13;;;13.10;;
70420;SDS011;57848;51.938;15.520;2022-08-19T05:46:04;20.25;;;12.85;;
70420;SDS011;57848;51.938;15.520;2022-08-19T05:48:35;18.53;;;12.90;;
70420;SDS011;57848;51.938;15.520;2022-08-19T05:51:04;22.73;;;13.73;;
70420;SDS011;57848;51.938;15.520;2022-08-19T05:53:31;18.83;;;14.13;;
70420;SDS011;57848;51.938;15.520;2022-08-19T05:55:58;21.60;;;13.30;;
70420;SDS011;57848;51.938;15.520;2022-08-19T05:58:29;20.33;;;12.85;;
70420;SDS011;57848;51.938;15.520;2022-08-19T06:00:54;21.67;;;13.50;;
70420;SDS011;57848;51.938;15.520;2022-08-19T06:03:19;21.13;;;13.27;;
70420;SDS011;57848;51.938;15.520;2022-08-19T06:05:45;20.77;;;13.40;;
70420;SDS011;57848;51.938;15.520;2022-08-19T06:08:10;21.92;;;14.35;;
70420;SDS011;57848;51.938;15.520;2022-08-19T06:10:36;19.97;;;13.90;;
70420;SDS011;57848;51.938;15.520;2022-08-19T06:13:01;19.37;;;13.33;;
70420;SDS011;57848;51.938;15.520;2022-08-19T06:15:27;19.40;;;13.95;;
70420;SDS011;57848;51.938;15.520;2022-08-19T06:17:53;19.23;;;13.40;;
70420;SDS011;57848;51.938;15.520;2022-08-19T06:20:18;21.40;;;13.25;;
70420;SDS011;57848;51.938;15.520;2022-08-19T06:22:46;21.27;;;13.17;;
70420;SDS011;57848;51.938;15.520;2022-08-19T06:25:16;17.85;;;12.63;;
70420;SDS011;57848;51.938;15.520;2022-08-19T06:27:42;20.50;;;13.98;;
70420;SDS011;57848;51.938;15.520;2022-08-19T06:30:08;20.25;;;13.40;;
70420;SDS011;57848;51.938;15.520;2022-08-19T06:32:35;23.52;;;14.02;;
70420;SDS011;57848;51.938;15.520;2022-08-19T06:35:00;17.83;;;13.23;;
70420;SDS011;57848;51.938;15.520;2022-08-19T06:37:25;22.30;;;13.63;;
70420;SDS011;57848;51.938;15.520;2022-08-19T06:39:51;19.60;;;13.77;;
70420;SDS011;57848;51.938;15.520;2022-08-19T06:42:16;17.87;;;12.13;;
70420;SDS011;57848;51.938;15.520;2022-08-19T06:44:44;18.35;;;13.05;;
70420;SDS011;57848;51.938;15.520;2022-08-19T06:47:13;22.73;;;14.23;;
70420;SDS011;57848;51.938;15.520;2022-08-19T06:49:40;20.95;;;13.63;;
70420;SDS011;57848;51.938;15.520;2022-08-19T06:52:07;20.37;;;13.83;;
70420;SDS011;57848;51.938;15.520;2022-08-19T06:54:33;19.55;;;13.40;;
70420;SDS011;57848;51.938;15.520;2022-08-19T06:56:59;20.10;;;14.02;;
70420;SDS011;57848;51.938;15.520;2022-08-19T06:59:27;18.60;;;13.40;;
70420;SDS011;57848;51.938;15.520;2022-08-19T07:01:53;19.73;;;14.45;;
70420;SDS011;57848;51.938;15.520;2022-08-19T07:04:22;20.85;;;14.73;;
70420;SDS011;57848;51.938;15.520;2022-08-19T07:06:49;20.13;;;13.13;;
70420;SDS011;57848;51.938;15.520;2022-08-19T07:09:21;19.00;;;13.43;;
70420;SDS011;57848;51.938;15.520;2022-08-19T07:11:48;19.17;;;14.00;;
70420;SDS011;57848;51.938;15.520;2022-08-19T07:14:15;17.35;;;13.40;;
70420;SDS011;57848;51.938;15.520;2022-08-19T07:16:43;24.05;;;14.57;;
70420;SDS011;57848;51.938;15.520;2022-08-19T07:19:10;19.45;;;14.20;;
70420;SDS011;57848;51.938;15.520;2022-08-19T07:21:36;22.38;;;13.55;;
70420;SDS011;57848;51.938;15.520;2022-08-19T07:24:02;18.33;;;13.33;;
70420;SDS011;57848;51.938;15.520;2022-08-19T07:26:29;19.38;;;13.27;;
70420;SDS011;57848;51.938;15.520;2022-08-19T07:28:57;18.07;;;12.60;;
70420;SDS011;57848;51.938;15.520;2022-08-19T07:31:24;20.75;;;13.35;;
70420;SDS011;57848;51.938;15.520;2022-08-19T07:33:52;18.38;;;12.50;;
70420;SDS011;57848;51.938;15.520;2022-08-19T07:36:21;17.00;;;11.65;;
70420;SDS011;57848;51.938;15.520;2022-08-19T07:38:49;17.63;;;11.65;;
70420;SDS011;57848;51.938;15.520;2022-08-19T07:41:18;16.83;;;11.20;;
70420;SDS011;57848;51.938;15.520;2022-08-19T07:43:47;16.80;;;11.40;;
70420;SDS011;57848;51.938;15.520;2022-08-19T07:46:13;15.60;;;10.55;;
70420;SDS011;57848;51.938;15.520;2022-08-19T07:48:39;16.10;;;10.30;;
70420;SDS011;57848;51.938;15.520;2022-08-19T07:51:07;16.20;;;11.40;;
70420;SDS011;57848;51.938;15.520;2022-08-19T07:53:33;17.25;;;10.95;;
70420;SDS011;57848;51.938;15.520;2022-08-19T07:55:59;17.90;;;11.20;;
70420;SDS011;57848;51.938;15.520;2022-08-19T07:58:27;17.65;;;10.93;;
70420;SDS011;57848;51.938;15.520;2022-08-19T08:00:54;17.38;;;11.20;;
70420;SDS011;57848;51.938;15.520;2022-08-19T08:03:20;17.77;;;10.50;;
70420;SDS011;57848;51.938;15.520;2022-08-19T08:06:09;18.48;;;10.52;;
70420;SDS011;57848;51.938;15.520;2022-08-19T08:08:53;18.43;;;10.10;;
70420;SDS011;57848;51.938;15.520;2022-08-19T08:11:40;14.43;;;10.15;;
70420;SDS011;57848;51.938;15.520;2022-08-19T08:14:08;17.08;;;11.50;;
70420;SDS011;57848;51.938;15.520;2022-08-19T08:16:37;17.73;;;11.63;;
70420;SDS011;57848;51.938;15.520;2022-08-19T08:19:06;17.55;;;12.38;;
70420;SDS011;57848;51.938;15.520;2022-08-19T08:21:33;18.80;;;11.83;;
70420;SDS011;57848;51.938;15.520;2022-08-19T08:23:59;19.70;;;11.65;;
70420;SDS011;57848;51.938;15.520;2022-08-19T08:26:24;17.67;;;12.40;;
70420;SDS011;57848;51.938;15.520;2022-08-19T08:28:51;17.13;;;13.20;;
70420;SDS011;57848;51.938;15.520;2022-08-19T08:31:17;21.98;;;12.82;;
70420;SDS011;57848;51.938;15.520;2022-08-19T08:33:46;18.67;;;13.85;;
70420;SDS011;57848;51.938;15.520;2022-08-19T08:36:12;19.20;;;13.47;;
70420;SDS011;57848;51.938;15.520;2022-08-19T08:38:39;19.95;;;14.13;;
70420;SDS011;57848;51.938;15.520;2022-08-19T08:41:08;19.08;;;14.13;;
70420;SDS011;57848;51.938;15.520;2022-08-19T08:43:44;22.30;;;15.13;;
70420;SDS011;57848;51.938;15.520;2022-08-19T08:46:54;26.52;;;17.25;;
70420;SDS011;57848;51.938;15.520;2022-08-19T08:49:18;23.97;;;16.87;;
70420;SDS011;57848;51.938;15.520;2022-08-19T08:51:52;25.08;;;17.48;;
70420;SDS011;57848;51.938;15.520;2022-08-19T08:54:25;27.20;;;17.70;;
70420;SDS011;57848;51.938;15.520;2022-08-19T08:57:14;23.83;;;16.15;;
70420;SDS011;57848;51.938;15.520;2022-08-19T08:59:45;22.98;;;16.77;;
70420;SDS011;57848;51.938;15.520;2022-08-19T09:02:16;20.90;;;15.47;;
70420;SDS011;57848;51.938;15.520;2022-08-19T09:04:42;22.80;;;16.33;;
70420;SDS011;57848;51.938;15.520;2022-08-19T09:09:40;22.97;;;16.60;;
70420;SDS011;57848;51.938;15.520;2022-08-19T09:14:47;21.85;;;16.85;;
70420;SDS011;57848;51.938;15.520;2022-08-19T09:17:17;22.13;;;15.88;;
70420;SDS011;57848;51.938;15.520;2022-08-19T09:19:53;26.60;;;16.55;;
70420;SDS011;57848;51.938;15.520;2022-08-19T09:22:21;26.87;;;16.90;;
70420;SDS011;57848;51.938;15.520;2022-08-19T09:24:48;27.30;;;17.70;;
70420;SDS011;57848;51.938;15.520;2022-08-19T09:27:15;25.48;;;17.25;;
70420;SDS011;57848;51.938;15.520;2022-08-19T09:29:41;22.52;;;17.15;;
70420;SDS011;57848;51.938;15.520;2022-08-19T09:32:06;27.07;;;16.93;;
70420;SDS011;57848;51.938;15.520;2022-08-19T09:34:32;24.67;;;17.07;;
70420;SDS011;57848;51.938;15.520;2022-08-19T09:36:57;22.47;;;16.57;;
70420;SDS011;57848;51.938;15.520;2022-08-19T09:39:25;22.17;;;15.93;;
70420;SDS011;57848;51.938;15.520;2022-08-19T09:41:50;23.73;;;16.20;;
70420;SDS011;57848;51.938;15.520;2022-08-19T09:44:16;25.97;;;16.27;;
70420;SDS011;57848;51.938;15.520;2022-08-19T09:46:41;22.60;;;16.50;;
70420;SDS011;57848;51.938;15.520;2022-08-19T09:49:07;25.27;;;17.60;;
70420;SDS011;57848;51.938;15.520;2022-08-19T09:51:32;25.63;;;17.33;;
70420;SDS011;57848;51.938;15.520;2022-08-19T09:53:59;24.23;;;16.98;;
70420;SDS011;57848;51.938;15.520;2022-08-19T09:56:29;26.30;;;16.65;;
70420;SDS011;57848;51.938;15.520;2022-08-19T09:58:57;26.60;;;17.47;;
70420;SDS011;57848;51.938;15.520;2022-08-19T10:01:24;25.17;;;17.08;;
70420;SDS011;57848;51.938;15.520;2022-08-19T10:03:52;25.17;;;16.70;;
70420;SDS011;57848;51.938;15.520;2022-08-19T10:06:19;25.58;;;17.20;;
70420;SDS011;57848;51.938;15.520;2022-08-19T10:08:46;26.80;;;18.48;;
70420;SDS011;57848;51.938;15.520;2022-08-19T10:11:12;25.37;;;17.10;;
70420;SDS011;57848;51.938;15.520;2022-08-19T10:13:41;26.45;;;17.42;;
70420;SDS011;57848;51.938;15.520;2022-08-19T10:16:08;26.23;;;18.45;;
70420;SDS011;57848;51.938;15.520;2022-08-19T10:18:36;27.55;;;18.90;;
70420;SDS011;57848;51.938;15.520;2022-08-19T10:21:15;24.90;;;17.52;;
70420;SDS011;57848;51.938;15.520;2022-08-19T10:23:44;24.33;;;18.33;;
70420;SDS011;57848;51.938;15.520;2022-08-19T10:26:16;24.75;;;17.45;;
70420;SDS011;57848;51.938;15.520;2022-08-19T10:28:44;24.83;;;16.75;;
70420;SDS011;57848;51.938;15.520;2022-08-19T10:31:14;22.70;;;16.03;;
70420;SDS011;57848;51.938;15.520;2022-08-19T10:33:42;23.58;;;15.43;;
70420;SDS011;57848;51.938;15.520;2022-08-19T10:36:18;19.10;;;13.40;;
70420;SDS011;57848;51.938;15.520;2022-08-19T10:38:48;17.85;;;12.60;;
70420;SDS011;57848;51.938;15.520;2022-08-19T10:41:20;17.30;;;12.30;;
70420;SDS011;57848;51.938;15.520;2022-08-19T10:43:52;18.65;;;12.82;;
70420;SDS011;57848;51.938;15.520;2022-08-19T10:46:22;19.05;;;12.95;;
70420;SDS011;57848;51.938;15.520;2022-08-19T10:48:48;17.45;;;12.43;;
70420;SDS011;57848;51.938;15.520;2022-08-19T10:51:15;19.52;;;12.85;;
70420;SDS011;57848;51.938;15.520;2022-08-19T10:54:00;20.93;;;14.17;;
70420;SDS011;57848;51.938;15.520;2022-08-19T10:56:26;19.38;;;13.52;;
70420;SDS011;57848;51.938;15.520;2022-08-19T10:59:10;21.77;;;14.80;;
70420;SDS011;57848;51.938;15.520;2022-08-19T11:01:37;19.13;;;14.38;;
70420;SDS011;57848;51.938;15.520;2022-08-19T11:04:03;19.93;;;14.57;;
70420;SDS011;57848;51.938;15.520;2022-08-19T11:06:31;19.35;;;13.80;;
70420;SDS011;57848;51.938;15.520;2022-08-19T11:08:57;22.53;;;14.00;;
70420;SDS011;57848;51.938;15.520;2022-08-19T11:11:22;19.83;;;13.65;;
70420;SDS011;57848;51.938;15.520;2022-08-19T11:13:48;19.30;;;13.50;;
70420;SDS011;57848;51.938;15.520;2022-08-19T11:16:17;17.23;;;12.60;;
70420;SDS011;57848;51.938;15.520;2022-08-19T11:18:49;19.83;;;13.25;;
70420;SDS011;57848;51.938;15.520;2022-08-19T11:21:17;18.65;;;12.85;;
70420;SDS011;57848;51.938;15.520;2022-08-19T11:23:48;19.87;;;13.00;;
70420;SDS011;57848;51.938;15.520;2022-08-19T11:26:15;16.20;;;12.02;;
70420;SDS011;57848;51.938;15.520;2022-08-19T11:28:41;22.00;;;13.05;;
70420;SDS011;57848;51.938;15.520;2022-08-19T11:31:14;19.70;;;13.10;;
70420;SDS011;57848;51.938;15.520;2022-08-19T11:33:41;18.30;;;12.60;;
70420;SDS011;57848;51.938;15.520;2022-08-19T11:36:07;19.52;;;13.13;;
70420;SDS011;57848;51.938;15.520;2022-08-19T11:38:33;22.67;;;13.40;;
70420;SDS011;57848;51.938;15.520;2022-08-19T11:41:01;21.67;;;14.45;;
70420;SDS011;57848;51.938;15.520;2022-08-19T11:43:27;19.73;;;14.27;;
70420;SDS011;57848;51.938;15.520;2022-08-19T11:45:54;24.57;;;15.93;;
70420;SDS011;57848;51.938;15.520;2022-08-19T11:48:20;26.15;;;15.82;;
70420;SDS011;57848;51.938;15.520;2022-08-19T11:50:47;23.05;;;16.27;;
70420;SDS011;57848;51.938;15.520;2022-08-19T11:53:16;24.15;;;16.92;;
70420;SDS011;57848;51.938;15.520;2022-08-19T11:55:43;22.65;;;15.55;;
70420;SDS011;57848;51.938;15.520;2022-08-19T11:58:10;27.40;;;16.77;;
70420;SDS011;57848;51.938;15.520;2022-08-19T12:00:37;23.25;;;15.77;;
70420;SDS011;57848;51.938;15.520;2022-08-19T12:03:03;21.67;;;15.45;;
70420;SDS011;57848;51.938;15.520;2022-08-19T12:05:28;22.80;;;15.97;;
70420;SDS011;57848;51.938;15.520;2022-08-19T12:07:54;23.77;;;16.30;;
70420;SDS011;57848;51.938;15.520;2022-08-19T12:10:20;23.03;;;17.50;;
70420;SDS011;57848;51.938;15.520;2022-08-19T12:12:45;25.33;;;17.02;;
70420;SDS011;57848;51.938;15.520;2022-08-19T12:15:11;23.75;;;16.40;;
70420;SDS011;57848;51.938;15.520;2022-08-19T12:17:37;25.70;;;16.73;;
70420;SDS011;57848;51.938;15.520;2022-08-19T12:20:03;23.10;;;15.98;;
70420;SDS011;57848;51.938;15.520;2022-08-19T12:22:30;24.67;;;16.03;;
70420;SDS011;57848;51.938;15.520;2022-08-19T12:24:55;22.73;;;16.98;;
70420;SDS011;57848;51.938;15.520;2022-08-19T12:27:29;23.98;;;16.40;;
70420;SDS011;57848;51.938;15.520;2022-08-19T12:29:54;22.47;;;16.43;;
70420;SDS011;57848;51.938;15.520;2022-08-19T12:32:19;24.57;;;16.93;;
70420;SDS011;57848;51.938;15.520;2022-08-19T12:34:46;24.27;;;16.58;;
70420;SDS011;57848;51.938;15.520;2022-08-19T12:37:12;22.42;;;15.63;;
70420;SDS011;57848;51.938;15.520;2022-08-19T12:39:39;23.67;;;15.85;;
70420;SDS011;57848;51.938;15.520;2022-08-19T12:42:07;23.87;;;16.10;;
70420;SDS011;57848;51.938;15.520;2022-08-19T12:44:33;26.10;;;17.48;;
70420;SDS011;57848;51.938;15.520;2022-08-19T12:47:00;24.38;;;15.95;;
70420;SDS011;57848;51.938;15.520;2022-08-19T12:49:30;23.67;;;16.70;;
70420;SDS011;57848;51.938;15.520;2022-08-19T12:51:58;25.40;;;18.30;;
70420;SDS011;57848;51.938;15.520;2022-08-19T12:54:30;26.20;;;17.40;;
70420;SDS011;57848;51.938;15.520;2022-08-19T12:56:56;22.93;;;16.27;;
70420;SDS011;57848;51.938;15.520;2022-08-19T12:59:23;26.40;;;16.80;;
70420;SDS011;57848;51.938;15.520;2022-08-19T13:01:48;27.65;;;18.13;;
70420;SDS011;57848;51.938;15.520;2022-08-19T13:04:14;23.50;;;17.23;;
70420;SDS011;57848;51.938;15.520;2022-08-19T13:06:40;26.40;;;18.15;;
70420;SDS011;57848;51.938;15.520;2022-08-19T13:09:05;27.73;;;17.20;;
70420;SDS011;57848;51.938;15.520;2022-08-19T13:11:31;24.10;;;17.87;;
70420;SDS011;57848;51.938;15.520;2022-08-19T13:13:58;23.60;;;17.05;;
70420;SDS011;57848;51.938;15.520;2022-08-19T13:16:25;22.90;;;17.85;;
70420;SDS011;57848;51.938;15.520;2022-08-19T13:18:52;26.40;;;17.27;;
70420;SDS011;57848;51.938;15.520;2022-08-19T13:21:18;25.50;;;17.87;;
70420;SDS011;57848;51.938;15.520;2022-08-19T13:23:45;23.15;;;17.88;;
70420;SDS011;57848;51.938;15.520;2022-08-19T13:26:11;25.77;;;17.63;;
70420;SDS011;57848;51.938;15.520;2022-08-19T13:28:38;22.95;;;17.50;;
70420;SDS011;57848;51.938;15.520;2022-08-19T13:31:24;24.10;;;18.45;;
70420;SDS011;57848;51.938;15.520;2022-08-19T13:34:09;23.58;;;17.05;;
70420;SDS011;57848;51.938;15.520;2022-08-19T13:36:35;22.52;;;16.83;;
70420;SDS011;57848;51.938;15.520;2022-08-19T13:39:02;23.77;;;17.30;;
70420;SDS011;57848;51.938;15.520;2022-08-19T13:41:28;25.25;;;17.08;;
70420;SDS011;57848;51.938;15.520;2022-08-19T13:43:54;24.77;;;17.33;;
70420;SDS011;57848;51.938;15.520;2022-08-19T13:46:19;23.80;;;16.70;;
70420;SDS011;57848;51.938;15.520;2022-08-19T13:48:45;26.10;;;17.77;;
70420;SDS011;57848;51.938;15.520;2022-08-19T13:51:12;23.87;;;17.10;;
70420;SDS011;57848;51.938;15.520;2022-08-19T13:53:38;24.13;;;18.10;;
70420;SDS011;57848;51.938;15.520;2022-08-19T13:56:08;22.97;;;17.43;;
70420;SDS011;57848;51.938;15.520;2022-08-19T13:58:35;25.92;;;18.90;;
70420;SDS011;57848;51.938;15.520;2022-08-19T14:01:02;25.15;;;17.63;;
70420;SDS011;57848;51.938;15.520;2022-08-19T14:03:28;25.98;;;18.00;;
70420;SDS011;57848;51.938;15.520;2022-08-19T14:05:53;26.97;;;17.90;;
70420;SDS011;57848;51.938;15.520;2022-08-19T14:08:19;23.30;;;16.87;;
70420;SDS011;57848;51.938;15.520;2022-08-19T14:10:44;24.55;;;16.77;;
70420;SDS011;57848;51.938;15.520;2022-08-19T14:13:12;25.00;;;17.08;;
70420;SDS011;57848;51.938;15.520;2022-08-19T14:15:40;24.77;;;17.90;;
70420;SDS011;57848;51.938;15.520;2022-08-19T14:18:06;24.02;;;16.73;;
70420;SDS011;57848;51.938;15.520;2022-08-19T14:20:33;25.37;;;17.97;;